Time;durP1;ratioP1;P1;durP2;ratioP2;P2;SDS_P1;SDS_P2;PMS_P1;PMS_P2;Temp;Humidity;BMP_temperature;BMP_pressure;BME280_temperature;BME280_humidity;BME280_pressure;Samples;Min_cycle;Max_cycle;Signal;HPM_P1;HPM_P2
2022/03/18 00:00:16;;;;;;;40.77;35.13;;;;;;;9.30;80.31;97949.28;5028422;28;20200;-53
2022/03/18 00:02:43;;;;;;;38.60;34.03;;;;;;;9.28;80.16;97944.09;5038478;28;20189;-53
2022/03/18 00:05:10;;;;;;;39.80;34.03;;;;;;;9.24;79.95;97949.72;5044217;28;20193;-52
2022/03/18 00:07:36;;;;;;;37.97;33.97;;;;;;;9.23;79.71;97948.00;5024392;28;20295;-53
2022/03/18 00:10:03;;;;;;;39.53;34.83;;;;;;;9.23;79.68;97948.88;5020682;28;20303;-53
2022/03/18 00:12:29;;;;;;;36.43;32.47;;;;;;;9.21;79.77;97944.66;5021156;28;20207;-53
2022/03/18 00:14:56;;;;;;;37.87;33.77;;;;;;;9.22;79.99;97943.69;5020487;28;20231;-52
2022/03/18 00:17:24;;;;;;;39.77;33.63;;;;;;;9.29;79.48;97942.31;5021666;28;20222;-52
2022/03/18 00:19:51;;;;;;;39.10;34.77;;;;;;;9.23;79.57;97948.00;5020618;28;20201;-53
2022/03/18 00:22:17;;;;;;;36.70;32.73;;;;;;;9.20;79.68;97948.22;5021316;28;20219;-53
2022/03/18 00:24:43;;;;;;;36.57;32.60;;;;;;;9.18;79.65;97947.47;5020880;28;20208;-52
2022/03/18 00:27:10;;;;;;;38.17;33.37;;;;;;;9.17;79.72;97948.44;5020724;28;20215;-54
2022/03/18 00:29:36;;;;;;;37.70;31.90;;;;;;;9.19;79.18;97943.88;5020477;28;20231;-52
2022/03/18 00:32:03;;;;;;;35.70;31.80;;;;;;;9.19;79.22;97960.56;5022838;28;20211;-54
2022/03/18 00:34:31;;;;;;;37.33;33.13;;;;;;;9.12;79.38;97946.09;5023620;28;20243;-54
2022/03/18 00:36:58;;;;;;;40.97;34.40;;;;;;;9.15;79.72;97953.81;5006090;28;20201;-53
2022/03/18 00:39:24;;;;;;;43.43;35.33;;;;;;;9.09;79.88;97956.00;5023586;28;20209;-52
2022/03/18 00:41:51;;;;;;;37.77;33.53;;;;;;;9.06;80.14;97945.66;5001823;28;20236;-54
2022/03/18 00:44:18;;;;;;;41.50;36.40;;;;;;;9.08;80.15;97955.16;5023230;28;20684;-53
2022/03/18 00:46:45;;;;;;;39.67;34.73;;;;;;;9.08;80.10;97955.16;5040837;28;20207;-54
2022/03/18 00:52:05;;;;;;;40.73;34.87;;;;;;;9.02;80.77;97957.38;5035988;28;20214;-52
2022/03/18 00:54:39;;;;;;;39.17;34.93;;;;;;;9.04;80.73;97958.94;5024003;28;20590;-54
2022/03/18 00:57:06;;;;;;;38.63;34.53;;;;;;;9.04;80.38;97952.81;5023760;28;20211;-52
2022/03/18 00:59:33;;;;;;;38.23;34.20;;;;;;;9.03;80.35;97961.69;5023683;28;20256;-54
2022/03/18 01:02:00;;;;;;;38.53;34.23;;;;;;;8.94;80.11;97953.44;5023254;28;20225;-53
2022/03/18 01:04:28;;;;;;;37.13;33.13;;;;;;;9.00;80.15;97953.03;5022978;28;21457;-52
2022/03/18 01:06:55;;;;;;;39.50;34.53;;;;;;;9.00;80.12;97957.44;5023828;28;20606;-52
2022/03/18 01:09:23;;;;;;;39.17;34.73;;;;;;;8.95;80.34;97952.50;5023156;28;20196;-52
2022/03/18 01:11:51;;;;;;;45.57;33.87;;;;;;;8.92;80.13;97955.34;5023374;28;20207;-54
2022/03/18 01:14:18;;;;;;;38.73;34.47;;;;;;;8.88;79.74;97964.41;5023080;28;20199;-53
2022/03/18 01:16:45;;;;;;;38.97;32.73;;;;;;;8.89;79.40;97955.50;5023499;28;20255;-53
2022/03/18 01:19:11;;;;;;;36.40;32.37;;;;;;;8.96;79.53;97956.81;5023133;28;20204;-51
2022/03/18 01:21:38;;;;;;;36.23;32.27;;;;;;;8.93;79.78;97957.00;5023161;28;20207;-52
2022/03/18 01:24:05;;;;;;;37.90;32.67;;;;;;;9.03;79.82;97956.41;5022280;28;20222;-51
2022/03/18 01:26:33;;;;;;;39.30;31.90;;;;;;;9.01;79.73;97959.16;5022179;28;20208;-54
2022/03/18 01:29:00;;;;;;;36.47;32.50;;;;;;;9.00;78.97;97958.28;5022216;28;20213;-52
2022/03/18 01:31:27;;;;;;;36.30;31.63;;;;;;;8.95;79.14;97960.41;5021657;28;20241;-52
2022/03/18 01:33:54;;;;;;;38.03;32.57;;;;;;;8.95;78.42;97981.53;5022988;28;20320;-53
2022/03/18 01:36:21;;;;;;;36.77;32.37;;;;;;;8.95;78.83;97970.13;5022489;28;20325;-53
2022/03/18 01:38:48;;;;;;;35.30;31.67;;;;;;;8.95;78.54;97962.19;5022599;28;20204;-54
2022/03/18 01:41:14;;;;;;;36.83;31.43;;;;;;;8.88;79.01;97964.41;5022686;28;20215;-53
2022/03/18 01:43:44;;;;;;;36.40;30.50;;;;;;;8.94;78.77;97968.41;5023280;28;20203;-54
2022/03/18 01:46:12;;;;;;;34.20;30.60;;;;;;;8.99;78.84;97967.19;5022493;28;20200;-53
2022/03/18 01:48:38;;;;;;;36.57;32.57;;;;;;;8.95;78.84;97968.31;5022069;28;20204;-53
2022/03/18 01:51:06;;;;;;;35.20;31.70;;;;;;;8.85;79.20;97972.53;5022825;28;20280;-53
2022/03/18 01:53:35;;;;;;;35.37;29.90;;;;;;;8.88;79.23;97967.03;5022795;28;20545;-53
2022/03/18 01:56:01;;;;;;;35.27;31.50;;;;;;;8.77;80.24;97972.16;5021987;28;20655;-55
2022/03/18 01:58:28;;;;;;;37.27;32.27;;;;;;;8.77;80.57;97966.03;5021679;28;20208;-55
2022/03/18 02:00:55;;;;;;;36.57;31.87;;;;;;;8.77;81.03;97966.03;5022942;28;20502;-54
2022/03/18 02:03:22;;;;;;;36.27;32.40;;;;;;;8.77;80.70;97963.41;5028948;28;20192;-55
2022/03/18 02:05:49;;;;;;;36.17;31.83;;;;;;;8.71;81.20;97956.75;5025601;28;20204;-54
2022/03/18 02:08:17;;;;;;;36.87;31.83;;;;;;;8.70;81.73;97960.31;5043431;28;20203;-53
2022/03/18 02:10:44;;;;;;;36.73;32.77;;;;;;;8.66;82.73;97961.47;5034699;28;20200;-54
2022/03/18 02:13:10;;;;;;;38.80;33.40;;;;;;;8.66;83.11;97947.41;5027614;28;20218;-53
2022/03/18 02:15:37;;;;;;;40.27;33.60;;;;;;;8.63;83.55;97964.28;5022970;28;20221;-53
2022/03/18 02:18:05;;;;;;;38.13;32.83;;;;;;;8.64;83.68;97963.38;5022855;28;20212;-52
2022/03/18 02:20:32;;;;;;;37.93;32.20;;;;;;;8.63;83.79;97966.09;5022732;28;20208;-54
2022/03/18 02:23:00;;;;;;;34.97;30.87;;;;;;;8.67;84.16;97965.78;5023155;28;20224;-53
2022/03/18 02:25:26;;;;;;;35.80;31.97;;;;;;;8.60;84.60;97969.78;5022880;28;20195;-53
2022/03/18 02:27:57;;;;;;;37.97;33.23;;;;;;;8.56;86.12;97965.63;5022199;28;20215;-54
2022/03/18 02:30:25;;;;;;;35.23;31.50;;;;;;;8.64;85.26;97975.69;5019768;28;20228;-52
2022/03/18 02:32:51;;;;;;;37.43;32.27;;;;;;;8.53;86.07;97968.47;5021618;28;20588;-54
2022/03/18 02:35:18;;;;;;;38.53;33.53;;;;;;;8.53;86.27;97967.63;5021624;28;20208;-55
2022/03/18 02:37:46;;;;;;;37.50;33.53;;;;;;;8.55;87.35;97977.13;5027837;28;20547;-52
2022/03/18 02:40:15;;;;;;;38.27;32.73;;;;;;;8.59;86.78;97961.94;5035700;28;20588;-53
2022/03/18 02:42:42;;;;;;;38.27;33.57;;;;;;;8.52;87.82;97979.97;5030664;28;20220;-53
2022/03/18 02:45:10;;;;;;;37.30;33.30;;;;;;;8.55;87.72;97977.13;5022312;28;20204;-52
2022/03/18 02:47:38;;;;;;;37.30;33.20;;;;;;;8.55;87.52;97976.25;5025600;28;20212;-54
2022/03/18 02:50:05;;;;;;;37.43;33.43;;;;;;;8.60;87.83;97980.31;5037473;28;20196;-53
2022/03/18 02:52:32;;;;;;;38.63;34.50;;;;;;;8.61;88.54;97981.16;5045233;28;20259;-53
2022/03/18 02:54:59;;;;;;;39.63;34.30;;;;;;;8.61;87.83;97974.06;5039927;28;20196;-53
2022/03/18 02:57:27;;;;;;;39.00;34.80;;;;;;;8.50;88.66;97973.94;5022145;28;20224;-54
2022/03/18 02:59:53;;;;;;;39.23;34.93;;;;;;;8.50;88.59;97979.22;5021920;28;20218;-54
2022/03/18 03:02:20;;;;;;;41.90;35.80;;;;;;;8.44;89.86;97982.22;5021734;28;20223;-52
2022/03/18 03:10:16;;;;;;;42.67;36.67;;;;;;;8.27;89.43;97988.53;5023995;28;20211;-54
2022/03/18 03:12:44;;;;;;;41.27;36.77;;;;;;;8.27;89.83;97996.44;5023455;28;20636;-53
2022/03/18 03:15:10;;;;;;;41.97;36.57;;;;;;;8.22;91.12;97995.06;5023836;28;20276;-54
2022/03/18 03:17:37;;;;;;;43.57;36.67;;;;;;;8.20;91.17;97996.91;5023712;28;20228;-53
2022/03/18 03:20:04;;;;;;;41.40;36.50;;;;;;;8.20;91.44;97991.66;5025122;28;20204;-54
2022/03/18 03:22:30;;;;;;;43.93;37.47;;;;;;;8.28;91.44;98005.19;5034186;28;20444;-54
2022/03/18 03:24:57;;;;;;;42.73;36.77;;;;;;;8.28;91.87;97994.66;5033837;28;20205;-54
2022/03/18 03:27:29;;;;;;;44.40;39.37;;;;;;;8.15;91.82;98009.53;5033586;28;20196;-53
2022/03/18 03:29:58;;;;;;;45.07;38.30;;;;;;;8.18;92.16;98004.06;5031572;28;20268;-54
2022/03/18 03:32:25;;;;;;;45.37;39.83;;;;;;;8.24;92.09;98001.06;5032986;28;20235;-56
2022/03/18 03:34:51;;;;;;;45.20;40.33;;;;;;;8.22;92.41;98016.13;5035451;28;20200;-53
2022/03/18 03:37:18;;;;;;;47.10;40.97;;;;;;;8.24;92.08;97998.41;5035185;28;20641;-53
2022/03/18 03:39:44;;;;;;;45.20;40.40;;;;;;;8.16;92.65;98008.59;5042202;28;20184;-53
2022/03/18 03:42:11;;;;;;;45.73;40.77;;;;;;;8.13;91.90;98000.88;5028108;28;20687;-53
2022/03/18 03:44:38;;;;;;;46.47;41.33;;;;;;;8.04;92.10;98010.22;5020648;28;20553;-54
2022/03/18 03:47:07;;;;;;;50.67;42.93;;;;;;;8.01;92.83;98019.13;5021200;28;20208;-53
2022/03/18 03:49:34;;;;;;;47.47;42.40;;;;;;;8.03;93.28;98019.03;5020543;28;20656;-52
2022/03/18 03:52:00;;;;;;;50.47;43.60;;;;;;;8.05;93.24;98018.94;5021741;28;20605;-53
2022/03/18 03:54:27;;;;;;;48.17;42.20;;;;;;;7.96;93.54;98021.22;5023138;28;20212;-52
2022/03/18 03:56:54;;;;;;;50.93;42.97;;;;;;;8.00;93.33;98020.09;5025632;28;20220;-55
2022/03/18 03:59:21;;;;;;;49.23;42.80;;;;;;;8.03;93.98;98021.69;5026774;28;20236;-52
2022/03/18 04:01:48;;;;;;;52.80;45.30;;;;;;;7.93;94.11;98021.41;5020562;28;20212;-54
2022/03/18 04:04:16;;;;;;;50.53;43.93;;;;;;;7.89;94.43;98025.16;5021299;28;20300;-54
2022/03/18 04:06:43;;;;;;;52.17;45.03;;;;;;;7.87;94.07;98032.28;5024520;28;20192;-53
2022/03/18 04:09:09;;;;;;;49.47;43.40;;;;;;;7.87;94.61;98028.78;5024103;28;20562;-53
2022/03/18 04:11:37;;;;;;;51.87;43.70;;;;;;;7.84;94.12;98031.63;5023961;28;20514;-55
2022/03/18 04:14:04;;;;;;;52.53;45.07;;;;;;;7.69;94.62;98037.78;5024337;28;20207;-54
2022/03/18 04:16:30;;;;;;;53.03;43.87;;;;;;;7.69;94.88;98033.38;5023677;28;20227;-53
2022/03/18 04:18:57;;;;;;;53.07;46.33;;;;;;;7.67;94.76;98035.28;5024525;28;20203;-54
2022/03/18 04:21:25;;;;;;;56.47;46.50;;;;;;;7.62;95.30;98039.94;5023468;28;20204;-55
2022/03/18 04:23:51;;;;;;;51.97;44.37;;;;;;;7.69;95.68;98037.78;5023590;28;20208;-54
2022/03/18 04:26:18;;;;;;;52.20;44.83;;;;;;;7.65;95.81;98046.84;5036866;28;20267;-53
2022/03/18 04:28:44;;;;;;;52.53;44.43;;;;;;;7.61;95.01;98051.44;5045437;28;20211;-54
2022/03/18 04:31:11;;;;;;;53.93;46.63;;;;;;;7.61;95.38;98038.28;5048197;28;20204;-52
2022/03/18 04:33:37;;;;;;;53.10;45.40;;;;;;;7.63;95.79;98046.91;5031310;28;20615;-54
2022/03/18 04:36:05;;;;;;;53.90;44.97;;;;;;;7.61;95.58;98046.19;5007726;28;20216;-55
2022/03/18 04:38:33;;;;;;;51.57;44.40;;;;;;;7.67;95.72;98053.69;5023809;28;20196;-55
2022/03/18 04:41:00;;;;;;;56.07;46.07;;;;;;;7.58;96.29;98050.78;5024006;28;20204;-55
2022/03/18 04:43:26;;;;;;;55.03;46.67;;;;;;;7.59;96.77;98049.81;5023460;28;20204;-53
2022/03/18 04:45:53;;;;;;;56.73;46.13;;;;;;;7.64;96.76;98053.03;5023953;28;20278;-54
2022/03/18 04:48:20;;;;;;;56.07;47.90;;;;;;;7.53;96.74;98048.41;5023835;28;20247;-54
2022/03/18 04:50:46;;;;;;;54.00;45.60;;;;;;;7.56;96.42;98055.25;5023564;28;21408;-56
2022/03/18 04:53:13;;;;;;;58.13;48.20;;;;;;;7.59;96.59;98050.66;5023873;28;20217;-56
2022/03/18 04:55:43;;;;;;;57.00;47.50;;;;;;;7.60;95.39;98049.75;5023374;28;20219;-55
2022/03/18 04:58:09;;;;;;;56.57;46.20;;;;;;;7.57;96.20;98056.97;5023366;28;20223;-56
2022/03/18 05:00:36;;;;;;;51.60;45.97;;;;;;;7.60;96.14;98054.16;5023163;28;20208;-55
2022/03/18 05:03:03;;;;;;;52.47;46.10;;;;;;;7.57;96.43;98052.56;5023916;28;20200;-55
2022/03/18 05:05:29;;;;;;;57.47;47.93;;;;;;;7.59;96.47;98062.97;5023615;28;20208;-55
2022/03/18 05:07:56;;;;;;;61.20;48.43;;;;;;;7.56;96.05;98058.75;5023132;28;20207;-54
2022/03/18 05:10:23;;;;;;;53.50;45.40;;;;;;;7.59;95.96;98058.56;5023275;28;20222;-55
2022/03/18 05:12:52;;;;;;;53.17;44.63;;;;;;;7.60;95.53;98055.00;5005957;28;20540;-55
2022/03/18 05:15:19;;;;;;;53.73;47.07;;;;;;;7.63;96.19;98060.09;5022836;28;20204;-56
2022/03/18 05:17:50;;;;;;;56.43;46.87;;;;;;;7.65;96.81;98067.91;5022431;28;20236;-54
2022/03/18 05:20:17;;;;;;;54.60;46.87;;;;;;;7.65;96.44;98074.00;5022769;28;20215;-53
2022/03/18 05:22:45;;;;;;;52.73;45.27;;;;;;;7.64;96.38;98069.69;5022523;28;20579;-50
2022/03/18 05:25:12;;;;;;;56.43;47.27;;;;;;;7.59;95.77;98074.38;5022324;28;20289;-52
2022/03/18 05:27:40;;;;;;;56.03;46.27;;;;;;;7.64;96.03;98072.31;5022086;28;20200;-52
2022/03/18 05:30:10;;;;;;;57.23;47.13;;;;;;;7.61;96.14;98067.25;5020821;28;20216;-52
2022/03/18 05:32:36;;;;;;;53.00;45.40;;;;;;;7.57;95.49;98075.41;5022428;28;20583;-51
2022/03/18 05:35:03;;;;;;;55.60;45.10;;;;;;;7.61;95.38;98071.66;5022779;28;20609;-53
2022/03/18 05:37:29;;;;;;;54.17;46.80;;;;;;;7.65;96.30;98081.06;5022437;28;20691;-52
2022/03/18 05:39:56;;;;;;;53.83;46.10;;;;;;;7.63;96.25;98075.88;5022291;28;20214;-52
2022/03/18 05:42:22;;;;;;;51.60;45.37;;;;;;;7.64;96.56;98080.22;5022559;28;20632;-52
2022/03/18 05:44:49;;;;;;;53.90;44.83;;;;;;;7.57;94.99;98085.94;5022349;28;20215;-52
2022/03/18 05:47:16;;;;;;;49.60;44.13;;;;;;;7.66;95.37;98086.22;5022370;28;20223;-53
2022/03/18 05:49:44;;;;;;;51.43;43.90;;;;;;;7.70;95.93;98092.16;5022818;28;20225;-51
2022/03/18 05:52:11;;;;;;;52.07;45.27;;;;;;;7.71;96.44;98094.72;5022499;28;20212;-52
2022/03/18 05:54:37;;;;;;;51.80;45.53;;;;;;;7.65;95.95;98097.69;5021672;28;20204;-51
2022/03/18 05:57:04;;;;;;;51.53;44.37;;;;;;;7.69;96.60;98093.94;5021546;28;20251;-51
2022/03/18 05:59:32;;;;;;;48.50;43.23;;;;;;;7.79;96.79;98096.91;5021982;28;20612;-53
2022/03/18 06:02:00;;;;;;;52.80;43.50;;;;;;;7.60;95.41;98089.22;5022293;28;20205;-52
2022/03/18 06:04:31;;;;;;;49.97;44.40;;;;;;;7.57;95.85;98099.94;5021808;28;20204;-56
2022/03/18 06:06:58;;;;;;;51.07;44.10;;;;;;;7.62;95.71;98092.59;5021809;28;20266;-52
2022/03/18 06:12:18;;;;;;;50.80;43.63;;;;;;;7.63;95.10;98102.22;4985967;28;20239;-53
2022/03/18 06:14:45;;;;;;;49.50;43.50;;;;;;;7.56;94.93;98092.13;5004203;28;20732;-52
2022/03/18 06:17:11;;;;;;;49.37;43.23;;;;;;;7.57;95.94;98097.31;5022641;28;20235;-50
2022/03/18 06:19:39;;;;;;;48.73;42.67;;;;;;;7.60;95.67;98097.13;5021859;28;20216;-52
2022/03/18 06:22:07;;;;;;;49.30;43.07;;;;;;;7.66;95.71;98096.75;5022763;28;20197;-52
2022/03/18 06:24:34;;;;;;;52.70;43.37;;;;;;;7.66;95.74;98096.75;5022498;28;20205;-52
2022/03/18 06:27:01;;;;;;;51.67;43.37;;;;;;;7.66;95.46;98103.81;5022127;28;20203;-52
2022/03/18 06:29:28;;;;;;;53.20;43.90;;;;;;;7.66;95.27;98109.91;5020943;28;20463;-53
2022/03/18 06:31:54;;;;;;;49.77;43.03;;;;;;;7.68;95.29;98105.44;5021214;28;20241;-52
2022/03/18 06:34:21;;;;;;;49.57;42.80;;;;;;;7.64;95.16;98109.19;5021509;28;20227;-53
2022/03/18 06:36:50;;;;;;;51.40;43.87;;;;;;;7.65;94.60;98104.75;5021827;28;20259;-53
2022/03/18 06:39:17;;;;;;;48.90;43.57;;;;;;;7.67;94.65;98105.50;5021985;28;20541;-53
2022/03/18 06:41:44;;;;;;;48.70;41.53;;;;;;;7.61;94.88;98108.50;5021791;28;20196;-52
2022/03/18 06:44:10;;;;;;;48.50;43.20;;;;;;;7.56;94.65;98105.28;5022113;28;20223;-51
2022/03/18 06:46:37;;;;;;;51.07;43.47;;;;;;;7.63;94.71;98111.88;5021531;28;20300;-54
2022/03/18 06:49:04;;;;;;;50.43;42.90;;;;;;;7.60;94.84;98115.56;5024174;28;20219;-54
2022/03/18 06:51:30;;;;;;;50.23;43.10;;;;;;;7.66;95.58;98125.72;5032142;28;20200;-53
2022/03/18 06:53:58;;;;;;;49.47;41.97;;;;;;;7.70;94.92;98119.34;5034109;28;20200;-52
2022/03/18 06:56:25;;;;;;;48.63;43.20;;;;;;;7.69;94.42;98122.91;5033532;28;20207;-53
2022/03/18 06:58:52;;;;;;;52.40;42.60;;;;;;;7.70;94.70;98121.97;5023086;28;20253;-51
2022/03/18 07:01:19;;;;;;;51.87;43.70;;;;;;;7.68;93.79;98130.91;5023897;28;20232;-52
2022/03/18 07:03:46;;;;;;;51.50;43.83;;;;;;;7.67;93.81;98137.09;5027773;28;20208;-52
2022/03/18 07:06:12;;;;;;;51.67;43.10;;;;;;;7.65;94.46;98126.66;5025282;28;20231;-53
2022/03/18 07:08:39;;;;;;;48.10;42.47;;;;;;;7.64;94.31;98127.59;5021966;28;20257;-51
2022/03/18 07:11:13;;;;;;;49.77;43.17;;;;;;;7.65;93.17;98131.91;5021863;28;20539;-52
2022/03/18 07:13:40;;;;;;;52.23;43.73;;;;;;;7.69;92.73;98135.22;5021550;28;20292;-52
2022/03/18 07:18:51;;;;;;;54.17;43.90;;;;;;;7.67;93.07;98134.47;5023029;28;20229;-52
2022/03/18 07:21:17;;;;;;;47.50;41.00;;;;;;;8.08;94.42;98138.16;5021506;28;20288;-52
2022/03/18 07:23:45;;;;;;;49.47;43.10;;;;;;;7.84;92.12;98139.59;5022103;28;20327;-51
2022/03/18 07:26:13;;;;;;;51.67;43.60;;;;;;;7.87;91.04;98140.28;5022910;28;20196;-52
2022/03/18 07:28:40;;;;;;;49.90;43.07;;;;;;;7.85;91.13;98142.16;5024110;28;20210;-52
2022/03/18 07:31:06;;;;;;;53.50;44.60;;;;;;;7.76;91.96;98137.41;5030237;28;20184;-51
2022/03/18 07:33:33;;;;;;;49.77;42.37;;;;;;;7.76;91.94;98140.03;5043335;28;20238;-52
2022/03/18 07:36:00;;;;;;;51.60;43.57;;;;;;;7.75;92.28;98138.38;5044361;28;20192;-52
2022/03/18 07:38:26;;;;;;;52.33;42.87;;;;;;;7.77;91.94;98147.00;5034609;28;20311;-52
2022/03/18 07:40:53;;;;;;;48.23;42.43;;;;;;;7.71;91.77;98142.13;5025644;28;20590;-52
2022/03/18 07:43:20;;;;;;;50.17;42.63;;;;;;;7.74;91.48;98143.72;5023581;28;20234;-52
2022/03/18 07:45:47;;;;;;;47.43;41.90;;;;;;;7.72;91.18;98153.50;5025939;28;20571;-52
2022/03/18 07:48:14;;;;;;;48.90;42.10;;;;;;;7.77;91.37;98147.00;5024574;28;20215;-51
2022/03/18 07:50:40;;;;;;;48.83;43.00;;;;;;;7.82;90.39;98147.63;5026244;28;20200;-53
2022/03/18 07:53:09;;;;;;;49.40;42.90;;;;;;;7.78;90.18;98143.47;5027003;28;20207;-56
2022/03/18 07:55:37;;;;;;;50.13;42.30;;;;;;;7.70;90.48;98142.19;5026896;28;20204;-53
2022/03/18 07:58:03;;;;;;;54.07;42.80;;;;;;;7.74;90.87;98141.06;5025271;28;20726;-51
2022/03/18 08:00:31;;;;;;;56.27;43.30;;;;;;;7.73;90.82;98149.91;5024815;28;20525;-52
2022/03/18 08:02:57;;;;;;;51.63;44.30;;;;;;;7.78;90.21;98146.09;5024553;28;20236;-52
2022/03/18 08:05:24;;;;;;;55.77;44.70;;;;;;;7.77;90.03;98154.06;5024510;28;20200;-51
2022/03/18 08:07:50;;;;;;;53.63;42.80;;;;;;;7.82;89.75;98152.03;5025236;28;20207;-51
2022/03/18 08:10:18;;;;;;;48.93;42.37;;;;;;;7.77;89.73;98147.00;5024888;28;20223;-51
2022/03/18 08:12:45;;;;;;;51.27;42.83;;;;;;;7.81;89.46;98153.81;5037173;28;20193;-52
2022/03/18 08:15:13;;;;;;;51.97;43.20;;;;;;;7.82;90.48;98157.28;5043358;28;20201;-52
2022/03/18 08:17:42;;;;;;;53.67;42.73;;;;;;;7.92;89.56;98156.66;5040997;28;20556;-52
2022/03/18 08:20:11;;;;;;;56.77;45.37;;;;;;;7.91;88.70;98170.75;5038992;28;20194;-52
2022/03/18 08:22:37;;;;;;;52.33;44.63;;;;;;;7.91;88.71;98168.13;5024620;28;20213;-52
2022/03/18 08:25:05;;;;;;;52.80;43.97;;;;;;;7.94;88.89;98160.03;5024015;28;20204;-52
2022/03/18 08:27:32;;;;;;;51.30;44.03;;;;;;;7.99;88.85;98167.69;5023069;28;20319;-52
2022/03/18 08:29:59;;;;;;;54.83;46.50;;;;;;;8.02;88.08;98172.78;5023976;28;20246;-52
2022/03/18 08:32:26;;;;;;;53.77;44.30;;;;;;;8.05;87.31;98167.31;5024604;28;20217;-53
2022/03/18 08:34:54;;;;;;;54.43;45.37;;;;;;;8.04;86.98;98170.06;5041453;28;20201;-53
2022/03/18 08:37:56;;;;;;;57.60;45.37;;;;;;;8.06;87.47;98163.75;5036139;28;20212;-52
2022/03/18 08:40:08;;;;;;;54.17;45.10;;;;;;;8.07;86.43;98168.09;5024159;28;20212;-51
2022/03/18 08:42:35;;;;;;;52.90;44.70;;;;;;;8.07;87.06;98176.00;5024110;28;20208;-52
2022/03/18 08:45:02;;;;;;;58.17;47.00;;;;;;;8.07;86.42;98164.59;5023112;28;20532;-52
2022/03/18 08:47:28;;;;;;;58.23;46.27;;;;;;;8.09;86.76;98175.88;5023000;28;20203;-52
2022/03/18 08:49:56;;;;;;;51.80;43.73;;;;;;;8.07;85.96;98175.16;5023513;28;20201;-51
2022/03/18 08:52:23;;;;;;;54.90;45.50;;;;;;;8.06;86.11;98171.66;5023211;28;20652;-51
2022/03/18 08:54:49;;;;;;;52.90;44.87;;;;;;;8.08;86.39;98171.59;5022594;28;20239;-51
2022/03/18 08:57:16;;;;;;;55.60;44.63;;;;;;;8.13;85.51;98180.03;5023218;28;20200;-52
2022/03/18 08:59:42;;;;;;;53.27;45.13;;;;;;;8.10;86.03;98188.13;5023103;28;20621;-52
2022/03/18 09:02:09;;;;;;;54.20;45.83;;;;;;;8.10;85.64;98180.22;5022391;28;20837;-52
2022/03/18 09:04:35;;;;;;;54.47;45.80;;;;;;;8.11;86.51;98184.56;5023553;28;20213;-52
2022/03/18 09:07:06;;;;;;;54.43;46.00;;;;;;;8.20;86.55;98191.91;5024662;28;20238;-53
2022/03/18 09:09:32;;;;;;;52.73;45.93;;;;;;;8.25;86.79;98189.88;5024042;28;20213;-52
2022/03/18 09:11:59;;;;;;;54.67;46.97;;;;;;;8.31;84.73;98195.66;5041230;28;20236;-52
2022/03/18 09:14:25;;;;;;;54.70;45.20;;;;;;;8.38;84.63;98198.78;5039060;28;20196;-52
2022/03/18 09:16:52;;;;;;;57.73;47.53;;;;;;;8.44;83.89;98201.03;5026566;28;20601;-52
2022/03/18 09:19:18;;;;;;;57.83;48.70;;;;;;;8.41;82.98;98206.50;5023431;28;20630;-52
2022/03/18 09:21:45;;;;;;;56.40;46.73;;;;;;;8.48;83.39;98190.22;5022413;28;20211;-51
2022/03/18 09:24:13;;;;;;;54.10;46.73;;;;;;;8.62;84.43;98197.28;5022781;28;20196;-53
2022/03/18 09:26:39;;;;;;;59.40;48.53;;;;;;;9.07;83.35;98206.78;5023131;28;20519;-53
2022/03/18 09:29:06;;;;;;;56.30;47.13;;;;;;;9.04;82.15;98201.72;5022138;28;20620;-52
2022/03/18 09:31:32;;;;;;;57.37;46.50;;;;;;;9.26;81.18;98201.22;5022694;28;20208;-52
2022/03/18 09:33:59;;;;;;;57.93;47.10;;;;;;;9.29;81.21;98206.31;5022281;28;20239;-53
2022/03/18 09:36:26;;;;;;;54.87;47.23;;;;;;;9.29;79.25;98201.03;5021946;28;20258;-52
2022/03/18 09:38:52;;;;;;;53.30;45.90;;;;;;;9.40;79.79;98206.47;5022554;28;20228;-53
2022/03/18 09:41:20;;;;;;;54.97;47.07;;;;;;;9.38;79.83;98200.47;5022483;28;20215;-52
2022/03/18 09:43:47;;;;;;;50.37;44.77;;;;;;;9.56;78.64;98198.44;5021910;28;20645;-52
2022/03/18 09:46:15;;;;;;;52.33;44.63;;;;;;;9.68;79.15;98206.41;5022633;28;20704;-52
2022/03/18 09:48:41;;;;;;;54.70;45.83;;;;;;;9.43;77.12;98203.63;5022619;28;20211;-51
2022/03/18 09:51:08;;;;;;;54.93;43.90;;;;;;;9.47;78.03;98205.13;5023079;28;20196;-51
2022/03/18 09:53:35;;;;;;;57.50;46.40;;;;;;;9.24;78.10;98219.81;5022020;28;20213;-52
2022/03/18 09:56:02;;;;;;;55.47;45.77;;;;;;;9.07;79.04;98211.25;5023603;28;20562;-52
2022/03/18 09:58:29;;;;;;;55.83;46.97;;;;;;;9.02;79.36;98213.31;5022538;28;20224;-52
2022/03/18 10:00:58;;;;;;;53.27;45.50;;;;;;;9.05;79.46;98215.75;5021900;28;20216;-53
2022/03/18 10:03:25;;;;;;;52.37;45.13;;;;;;;8.77;79.48;98209.56;5021352;28;20235;-53
2022/03/18 10:05:57;;;;;;;51.97;46.27;;;;;;;8.84;79.73;98221.44;5023471;28;20216;-53
2022/03/18 10:08:25;;;;;;;54.10;44.00;;;;;;;8.77;79.34;98209.56;5022731;28;20241;-52
2022/03/18 10:10:52;;;;;;;52.60;45.17;;;;;;;8.84;79.61;98216.16;5022015;28;20548;-53
2022/03/18 10:13:20;;;;;;;50.93;43.13;;;;;;;8.71;79.66;98224.91;5022216;28;20232;-52
2022/03/18 10:15:48;;;;;;;52.27;44.27;;;;;;;8.68;79.64;98210.09;5022760;28;20636;-51
2022/03/18 10:18:16;;;;;;;53.93;45.93;;;;;;;8.76;79.73;98217.56;5023786;28;20229;-53
2022/03/18 10:20:45;;;;;;;56.33;44.83;;;;;;;8.60;80.28;98212.38;5029113;28;20233;-52
2022/03/18 10:23:20;;;;;;;49.37;43.03;;;;;;;8.65;79.89;98209.44;5030920;28;20209;-52
2022/03/18 10:25:50;;;;;;;53.67;45.20;;;;;;;8.72;79.35;98205.47;5030357;28;20203;-54
2022/03/18 10:28:17;;;;;;;50.63;43.20;;;;;;;8.73;79.68;98207.19;5030278;28;20204;-52
2022/03/18 10:30:44;;;;;;;51.33;43.93;;;;;;;8.90;79.48;98204.38;5030806;28;20551;-52
2022/03/18 10:33:11;;;;;;;51.73;43.80;;;;;;;8.91;78.23;98211.34;5028050;28;20323;-55
2022/03/18 10:38:27;;;;;;;51.87;42.83;;;;;;;9.00;78.49;98211.63;5022264;28;20729;-52
2022/03/18 10:40:55;;;;;;;57.03;44.87;;;;;;;9.06;78.12;98217.47;5022204;28;20204;-52
2022/03/18 10:43:22;;;;;;;53.67;44.47;;;;;;;9.14;77.39;98218.66;5022164;28;20208;-53
2022/03/18 10:46:00;;;;;;;49.57;42.27;;;;;;;9.08;77.55;98210.28;5022123;28;20522;-52
2022/03/18 10:48:28;;;;;;;51.10;43.47;;;;;;;9.12;78.05;98215.28;5021898;28;20243;-51
2022/03/18 10:51:02;;;;;;;50.97;42.70;;;;;;;9.18;77.58;98214.03;5021570;28;20224;-52
2022/03/18 10:53:30;;;;;;;50.53;43.23;;;;;;;9.12;77.55;98219.72;5021601;28;20216;-51
2022/03/18 10:55:59;;;;;;;48.77;42.63;;;;;;;9.20;77.74;98218.31;5021182;28;20212;-51
2022/03/18 10:58:29;;;;;;;51.40;41.70;;;;;;;9.32;76.19;98212.22;5021823;28;20350;-51
2022/03/18 11:00:58;;;;;;;46.47;41.40;;;;;;;9.30;76.40;98221.22;5021445;28;20291;-52
2022/03/18 11:03:25;;;;;;;47.10;40.30;;;;;;;9.36;76.77;98223.44;5023538;28;20207;-52
2022/03/18 11:05:53;;;;;;;49.77;42.27;;;;;;;9.25;76.36;98218.84;5021689;28;20227;-52
2022/03/18 11:08:22;;;;;;;52.27;42.37;;;;;;;9.33;76.05;98218.38;5021420;28;20197;-52
2022/03/18 11:11:11;;;;;;;51.50;41.40;;;;;;;9.32;76.77;98221.94;5023109;28;20214;-52
2022/03/18 11:13:46;;;;;;;56.03;41.50;;;;;;;9.36;75.99;98226.94;5025278;28;20616;-52
2022/03/18 11:16:13;;;;;;;48.13;41.47;;;;;;;9.33;75.51;98213.94;5027640;28;20211;-53
2022/03/18 11:18:40;;;;;;;49.43;41.93;;;;;;;9.27;76.29;98219.63;5022301;28;20219;-52
2022/03/18 11:21:09;;;;;;;50.57;40.50;;;;;;;9.34;76.47;98226.19;5023037;28;20270;-52
2022/03/18 11:23:38;;;;;;;48.23;41.27;;;;;;;9.30;76.09;98221.22;5022569;28;20637;-52
2022/03/18 11:26:06;;;;;;;46.27;40.30;;;;;;;9.38;76.51;98216.31;5023017;28;20218;-52
2022/03/18 11:28:33;;;;;;;47.63;40.63;;;;;;;9.45;75.06;98228.16;5025229;28;20205;-52
2022/03/18 11:31:04;;;;;;;46.57;40.23;;;;;;;9.43;74.58;98222.13;5035563;28;20215;-53
2022/03/18 11:33:31;;;;;;;45.67;39.67;;;;;;;9.43;74.51;98211.56;5034794;28;20241;-53
2022/03/18 11:36:05;;;;;;;51.13;39.60;;;;;;;9.50;75.41;98211.06;5030323;28;20201;-54
2022/03/18 11:39:02;;;;;;;50.73;40.07;;;;;;;9.48;73.84;98207.69;5040293;28;20223;-53
2022/03/18 11:41:46;;;;;;;48.90;40.43;;;;;;;9.50;74.87;98203.16;5045149;28;20176;-52